createdAt,value
2022-09-23T00:01:26.621Z,3.46
2022-09-23T00:04:30.582Z,3.42
2022-09-23T00:07:33.067Z,3.38
2022-09-23T00:10:38.684Z,3.40
2022-09-23T00:13:43.366Z,3.41
2022-09-23T00:16:45.928Z,3.42
2022-09-23T00:19:50.058Z,3.47
2022-09-23T00:22:53.365Z,3.47
2022-09-23T00:25:59.234Z,3.42
2022-09-23T00:29:01.882Z,3.37
2022-09-23T00:32:05.064Z,3.30
2022-09-23T00:35:10.648Z,3.29
2022-09-23T00:38:14.243Z,3.25
2022-09-23T00:41:16.977Z,3.31
2022-09-23T00:44:49.127Z,3.35
2022-09-23T00:47:55.760Z,3.32
2022-09-23T00:50:59.571Z,3.33
2022-09-23T00:54:03.007Z,3.35
2022-09-23T00:57:06.959Z,3.29
2022-09-23T01:00:11.585Z,3.26
2022-09-23T01:03:15.166Z,3.24
2022-09-23T01:06:18.978Z,3.25
2022-09-23T01:09:22.881Z,3.28
2022-09-23T01:12:48.327Z,3.24
2022-09-23T01:15:57.906Z,3.20
2022-09-23T01:19:11.314Z,3.14
2022-09-23T01:22:23.549Z,3.11
2022-09-23T01:25:44.967Z,3.06
2022-09-23T01:29:17.878Z,3.13
2022-09-23T01:32:32.151Z,3.07
2022-09-23T01:35:45.027Z,3.03
2022-09-23T01:38:58.407Z,3.07
2022-09-23T01:42:07.009Z,3.13
2022-09-23T01:45:15.439Z,3.18
2022-09-23T01:48:24.422Z,3.24
2022-09-23T01:51:31.903Z,3.20
2022-09-23T01:54:39.726Z,3.09
2022-09-23T01:57:45.783Z,2.96
2022-09-23T02:00:53.274Z,2.94
2022-09-23T02:04:05.215Z,2.86
2022-09-23T02:07:15.155Z,2.72
2022-09-23T02:10:25.087Z,2.72
2022-09-23T02:13:33.327Z,2.69
2022-09-23T02:16:40.882Z,2.69
2022-09-23T02:19:47.893Z,2.65
2022-09-23T02:22:57.407Z,2.71
2022-09-23T02:26:07.414Z,2.82
2022-09-23T02:29:19.748Z,2.78
2022-09-23T02:32:28.420Z,2.67
2022-09-23T02:35:37.808Z,2.65
2022-09-23T02:38:45.529Z,2.58
2022-09-23T02:41:57.059Z,2.58
2022-09-23T02:44:59.725Z,2.57
2022-09-23T02:48:06.454Z,2.57
2022-09-23T02:51:11.314Z,2.56
2022-09-23T02:54:15.831Z,2.60
2022-09-23T02:57:18.409Z,2.55
2022-09-23T03:00:21.091Z,2.52
2022-09-23T03:03:40.475Z,2.60
2022-09-23T03:06:54.268Z,2.58
2022-09-23T03:10:05.363Z,2.56
2022-09-23T03:13:16.980Z,2.54
2022-09-23T03:16:30.860Z,2.51
2022-09-23T03:19:41.414Z,2.46
2022-09-23T03:22:49.751Z,2.41
2022-09-23T03:25:54.935Z,2.45
2022-09-23T03:28:58.668Z,2.45
2022-09-23T03:32:01.342Z,2.44
2022-09-23T03:35:06.391Z,2.45
2022-09-23T03:38:17.419Z,2.47
2022-09-23T03:41:28.408Z,2.40
2022-09-23T03:44:31.165Z,2.41
2022-09-23T03:47:33.909Z,2.45
2022-09-23T03:50:36.443Z,2.46
2022-09-23T03:53:40.237Z,2.40
2022-09-23T03:56:42.732Z,2.32
2022-09-23T03:59:45.207Z,2.31
2022-09-23T04:02:48.199Z,2.27
2022-09-23T04:05:51.830Z,2.28
2022-09-23T04:08:55.712Z,2.31
2022-09-23T04:11:58.359Z,2.31
2022-09-23T04:15:00.837Z,2.34
2022-09-23T04:18:03.304Z,2.29
2022-09-23T04:21:05.951Z,2.21
2022-09-23T04:24:10.624Z,2.15
2022-09-23T04:27:13.061Z,2.13
2022-09-23T04:30:15.561Z,2.09
2022-09-23T04:33:18.292Z,2.18
2022-09-23T04:36:20.827Z,2.19
2022-09-23T04:39:24.652Z,2.20
2022-09-23T04:42:29.533Z,2.23
2022-09-23T04:45:32.071Z,2.10
2022-09-23T04:48:34.913Z,2.12
2022-09-23T04:51:37.378Z,2.15
2022-09-23T04:54:41.560Z,2.26
2022-09-23T04:57:44.461Z,2.33
2022-09-23T05:00:46.973Z,2.33
2022-09-23T05:03:49.448Z,2.39
2022-09-23T05:06:51.888Z,2.25
2022-09-23T05:09:55.666Z,2.31
2022-09-23T05:12:59.024Z,2.37
2022-09-23T05:16:03.276Z,2.45
2022-09-23T05:19:06.019Z,2.51
2022-09-23T05:22:08.518Z,2.64
2022-09-23T05:25:12.306Z,2.77
2022-09-23T05:28:18.012Z,2.89
2022-09-23T05:31:22.740Z,2.89
2022-09-23T05:34:25.629Z,2.94
2022-09-23T05:37:28.064Z,2.99
2022-09-23T05:40:32.123Z,3.01
2022-09-23T05:43:35.737Z,3.08
2022-09-23T05:46:38.302Z,3.22
2022-09-23T05:49:58.504Z,3.43
2022-09-23T05:53:01.508Z,4.12
2022-09-23T05:56:05.726Z,5.12
2022-09-23T05:59:08.414Z,6.87
2022-09-23T06:02:11.197Z,7.91
2022-09-23T06:05:13.796Z,9.28
2022-09-23T06:08:16.351Z,10.29
2022-09-23T06:11:21.521Z,11.09
2022-09-23T06:14:24.430Z,11.82
2022-09-23T06:17:26.884Z,12.29
2022-09-23T06:20:29.549Z,12.43
2022-09-23T06:23:32.495Z,13.12
2022-09-23T06:26:37.642Z,13.15
2022-09-23T06:29:40.223Z,13.72
2022-09-23T06:32:43.138Z,13.19
2022-09-23T06:35:56.239Z,12.54
2022-09-23T06:39:02.780Z,11.97
2022-09-23T06:42:07.690Z,11.89
2022-09-23T06:45:13.142Z,11.84
2022-09-23T06:48:15.687Z,11.84
2022-09-23T06:51:19.973Z,12.13
2022-09-23T06:54:22.784Z,12.38
2022-09-23T06:57:30.098Z,12.79
2022-09-23T07:00:32.593Z,13.35
2022-09-23T07:03:36.420Z,13.80
2022-09-23T07:06:38.989Z,14.20
2022-09-23T07:09:41.617Z,14.45
2022-09-23T07:12:45.438Z,14.67
2022-09-23T07:15:50.781Z,14.60
2022-09-23T07:18:53.550Z,14.68
2022-09-23T07:21:57.047Z,15.11
2022-09-23T07:24:59.514Z,15.16
2022-09-23T07:28:03.487Z,15.29
2022-09-23T07:31:08.034Z,15.84
2022-09-23T07:34:12.111Z,16.37
2022-09-23T07:37:14.623Z,16.88
2022-09-23T07:40:17.189Z,16.98
2022-09-23T07:43:20.998Z,17.13
2022-09-23T07:46:23.594Z,17.15
2022-09-23T07:49:26.508Z,17.21
2022-09-23T07:52:28.947Z,17.40
2022-09-23T07:55:31.441Z,17.48
2022-09-23T07:58:36.092Z,17.41
2022-09-23T08:01:40.345Z,17.48
2022-09-23T08:04:43.302Z,18.00
2022-09-23T08:07:45.831Z,18.29
2022-09-23T08:10:48.296Z,18.68
2022-09-23T08:13:52.109Z,18.79
2022-09-23T08:16:54.637Z,18.84
2022-09-23T08:19:57.095Z,18.63
2022-09-23T08:22:59.791Z,18.83
2022-09-23T08:26:03.627Z,19.06
2022-09-23T08:29:09.809Z,19.12
2022-09-23T08:32:12.312Z,18.91
2022-09-23T08:35:15.132Z,18.85
2022-09-23T08:38:17.605Z,19.37
2022-09-23T08:41:26.873Z,19.39
2022-09-23T08:44:38.813Z,19.37
2022-09-23T08:47:48.096Z,19.52
2022-09-23T08:50:58.586Z,19.51
2022-09-23T08:54:01.680Z,19.36
2022-09-23T08:57:06.392Z,19.67
2022-09-23T09:00:21.064Z,20.04
2022-09-23T09:03:25.969Z,19.57
2022-09-23T09:06:41.865Z,19.18
2022-09-23T09:09:56.308Z,19.48
2022-09-23T09:13:04.428Z,19.32
2022-09-23T09:16:55.641Z,19.44
2022-09-23T09:19:57.473Z,19.49
2022-09-23T09:23:00.784Z,19.54
2022-09-23T09:26:05.244Z,19.37
2022-09-23T09:29:31.227Z,19.39
2022-09-23T09:32:48.427Z,20.12
2022-09-23T09:36:03.123Z,20.48
2022-09-23T09:39:06.723Z,20.58
2022-09-23T09:42:20.189Z,20.22
2022-09-23T09:45:33.828Z,19.49
2022-09-23T09:48:40.933Z,19.29
2022-09-23T09:51:43.810Z,19.49
2022-09-23T09:54:46.343Z,19.52
2022-09-23T09:57:53.592Z,19.89
2022-09-23T10:00:57.064Z,19.91
2022-09-23T10:04:03.701Z,19.59
2022-09-23T10:07:09.420Z,19.98
2022-09-23T10:10:32.239Z,20.11
2022-09-23T10:13:36.244Z,20.36
2022-09-23T10:16:40.096Z,21.01
2022-09-23T10:19:49.354Z,21.04
2022-09-23T10:22:51.941Z,20.86
2022-09-23T10:25:58.356Z,21.04
2022-09-23T10:29:03.765Z,20.05
2022-09-23T10:32:25.599Z,20.93
2022-09-23T10:35:33.425Z,20.90
2022-09-23T10:38:36.005Z,20.52
2022-09-23T10:42:05.456Z,19.49
2022-09-23T10:45:38.612Z,19.87
2022-09-23T10:48:54.154Z,20.33
2022-09-23T10:52:09.321Z,19.57
2022-09-23T10:55:28.856Z,19.24
2022-09-23T10:58:54.060Z,19.26
2022-09-23T11:02:08.479Z,19.25
2022-09-23T11:05:32.636Z,19.18
2022-09-23T11:08:53.599Z,19.21
2022-09-23T11:12:09.830Z,19.82
2022-09-23T11:15:27.363Z,19.58
2022-09-23T11:18:46.841Z,19.68
2022-09-23T11:22:07.138Z,19.63
2022-09-23T11:25:25.715Z,19.29
2022-09-23T11:28:55.060Z,19.08
2022-09-23T11:32:11.104Z,19.18
2022-09-23T11:35:19.471Z,19.16
2022-09-23T11:38:26.252Z,19.05
2022-09-23T11:41:33.276Z,19.03
2022-09-23T11:44:41.145Z,18.75
2022-09-23T11:47:46.732Z,18.98
2022-09-23T11:50:54.042Z,18.41
2022-09-23T11:54:01.926Z,18.43
2022-09-23T11:57:14.380Z,18.70
2022-09-23T12:00:20.130Z,18.96
2022-09-23T12:03:39.934Z,19.55
2022-09-23T12:06:48.941Z,19.71
2022-09-23T12:10:00.460Z,20.20
2022-09-23T12:13:08.969Z,19.98
2022-09-23T12:16:41.076Z,19.66
2022-09-23T12:20:02.945Z,19.51
2022-09-23T12:23:13.976Z,19.80
2022-09-23T12:26:19.986Z,19.95
2022-09-23T12:32:34.994Z,20.04
2022-09-23T12:35:42.971Z,19.92
2022-09-23T12:38:51.297Z,19.97
2022-09-23T12:41:59.328Z,19.84
2022-09-23T12:45:34.997Z,19.98
2022-09-23T12:48:57.357Z,19.99
2022-09-23T12:52:25.880Z,19.83
2022-09-23T12:55:51.540Z,19.85
2022-09-23T12:59:27.801Z,19.73
2022-09-23T13:02:37.406Z,19.89
2022-09-23T13:06:03.997Z,20.17
2022-09-23T13:09:10.776Z,20.59
2022-09-23T13:12:21.147Z,20.71
2022-09-23T13:15:30.123Z,20.90
2022-09-23T13:19:01.560Z,21.00
2022-09-23T13:22:09.094Z,20.97
2022-09-23T13:25:20.555Z,20.90
2022-09-23T13:28:33.305Z,20.36
2022-09-23T13:31:36.170Z,20.31
2022-09-23T13:34:44.206Z,19.52
2022-09-23T13:37:48.755Z,18.75
2022-09-23T13:40:54.782Z,18.32
2022-09-23T13:43:59.697Z,18.42
2022-09-23T13:47:03.238Z,18.57
2022-09-23T13:50:14.108Z,18.55
2022-09-23T13:53:22.873Z,18.64
2022-09-23T13:56:27.248Z,18.44
2022-09-23T13:59:32.015Z,18.59
2022-09-23T14:02:34.596Z,18.64
2022-09-23T14:05:39.504Z,18.59
2022-09-23T14:08:45.468Z,18.57
2022-09-23T14:11:48.181Z,18.32
2022-09-23T14:14:52.740Z,18.25
2022-09-23T14:18:01.382Z,18.31
2022-09-23T14:21:06.338Z,18.28
2022-09-23T14:24:20.086Z,18.35
2022-09-23T14:27:28.964Z,18.36
2022-09-23T14:30:31.955Z,18.32
2022-09-23T14:33:35.111Z,18.22
2022-09-23T14:37:11.045Z,18.32
2022-09-23T14:40:17.049Z,18.28
2022-09-23T14:43:24.800Z,18.26
2022-09-23T14:46:29.005Z,18.20
2022-09-23T14:49:32.527Z,18.40
2022-09-23T14:52:36.822Z,18.29
2022-09-23T14:55:39.365Z,18.27
2022-09-23T14:58:48.218Z,18.23
2022-09-23T15:01:53.680Z,18.15
2022-09-23T15:05:08.731Z,17.91
2022-09-23T15:08:17.635Z,17.78
2022-09-23T15:11:20.437Z,17.86
2022-09-23T15:14:39.429Z,17.90
2022-09-23T15:17:43.661Z,17.87
2022-09-23T15:20:52.145Z,17.71
2022-09-23T15:23:57.767Z,17.57
2022-09-23T15:27:00.227Z,17.38
2022-09-23T15:30:15.084Z,17.16
2022-09-23T15:33:17.811Z,16.90
2022-09-23T15:36:22.376Z,16.74
2022-09-23T15:39:35.499Z,16.50
2022-09-23T15:42:38.922Z,16.21
2022-09-23T15:45:45.068Z,16.00
2022-09-23T15:48:58.487Z,15.78
2022-09-23T15:52:02.399Z,15.63
2022-09-23T15:55:15.272Z,15.43
2022-09-23T15:58:17.767Z,15.27
2022-09-23T16:01:27.174Z,15.18
2022-09-23T16:04:31.359Z,15.13
2022-09-23T16:07:33.905Z,15.11
2022-09-23T16:10:38.162Z,15.07
2022-09-23T16:13:40.632Z,15.01
2022-09-23T16:16:44.859Z,14.88
2022-09-23T16:19:47.469Z,14.77
2022-09-23T16:22:54.549Z,14.63
2022-09-23T16:25:58.401Z,14.47
2022-09-23T16:29:01.603Z,14.28
2022-09-23T16:32:04.294Z,14.10
2022-09-23T16:35:08.431Z,13.93
2022-09-23T16:38:10.929Z,13.70
2022-09-23T16:41:14.793Z,13.55
2022-09-23T16:44:17.280Z,13.38
2022-09-23T16:47:20.118Z,13.20
2022-09-23T16:50:24.280Z,13.11
2022-09-23T16:53:29.756Z,13.01
2022-09-23T16:56:33.609Z,12.90
2022-09-23T16:59:50.098Z,12.79
2022-09-23T17:03:10.255Z,12.69
2022-09-23T17:06:13.933Z,12.56
2022-09-23T17:09:17.414Z,12.48
2022-09-23T17:12:27.752Z,12.44
2022-09-23T17:15:30.484Z,12.40
2022-09-23T17:18:33.031Z,12.30
2022-09-23T17:21:36.349Z,12.06
2022-09-23T17:24:38.821Z,11.92
2022-09-23T17:27:42.631Z,11.85
2022-09-23T17:30:45.097Z,11.70
2022-09-23T17:33:47.676Z,11.56
2022-09-23T17:36:50.124Z,11.52
2022-09-23T17:39:52.601Z,11.52
2022-09-23T17:42:56.726Z,11.55
2022-09-23T17:46:06.379Z,11.57
2022-09-23T17:49:09.340Z,11.51
2022-09-23T17:52:11.878Z,11.39
2022-09-23T17:55:14.769Z,11.12
2022-09-23T17:58:18.908Z,11.01
2022-09-23T18:01:23.974Z,10.96
2022-09-23T18:04:26.499Z,10.90
2022-09-23T18:07:29.057Z,10.86
2022-09-23T18:10:32.045Z,10.87
2022-09-23T18:13:35.839Z,10.84
2022-09-23T18:16:40.368Z,10.81
2022-09-23T18:19:43.066Z,10.74
2022-09-23T18:22:45.588Z,10.71
2022-09-23T18:25:48.075Z,10.69
2022-09-23T18:28:55.528Z,10.76
2022-09-23T18:31:59.222Z,10.78
2022-09-23T18:35:01.914Z,10.77
2022-09-23T18:38:04.379Z,10.76
2022-09-23T18:41:08.095Z,10.71
2022-09-23T18:44:13.282Z,10.64
2022-09-23T18:47:35.759Z,10.56
2022-09-23T18:50:40.340Z,10.50
2022-09-23T18:53:43.085Z,10.43
2022-09-23T18:56:46.410Z,10.37
2022-09-23T18:59:50.235Z,10.39
2022-09-23T19:02:52.840Z,10.36
2022-09-23T19:05:55.321Z,10.42
2022-09-23T19:08:57.913Z,10.47
2022-09-23T19:12:01.824Z,10.51
2022-09-23T19:15:06.166Z,10.56
2022-09-23T19:18:08.647Z,10.56
2022-09-23T19:21:13.061Z,10.46
2022-09-23T19:24:19.842Z,10.43
2022-09-23T19:27:23.491Z,10.34
2022-09-23T19:30:27.267Z,10.32
2022-09-23T19:33:29.732Z,10.28
2022-09-23T19:36:34.348Z,10.24
2022-09-23T19:39:37.528Z,10.21
2022-09-23T19:42:40.085Z,10.18
2022-09-23T19:45:44.395Z,10.22
2022-09-23T19:48:46.993Z,10.18
2022-09-23T19:51:49.516Z,10.13
2022-09-23T19:54:51.981Z,10.18
2022-09-23T19:57:54.445Z,10.15
2022-09-23T20:00:58.397Z,10.14
2022-09-23T20:04:01.130Z,10.05
2022-09-23T20:07:04.214Z,9.93
2022-09-23T20:10:07.530Z,9.86
2022-09-23T20:13:10.005Z,9.78
2022-09-23T20:16:16.293Z,9.76
2022-09-23T20:19:19.285Z,9.69
2022-09-23T20:22:32.955Z,9.57
2022-09-23T20:25:49.876Z,9.49
2022-09-23T20:28:53.669Z,9.47
2022-09-23T20:31:59.344Z,9.46
2022-09-23T20:35:01.841Z,9.44
2022-09-23T20:38:07.993Z,9.42
2022-09-23T20:41:10.680Z,9.39
2022-09-23T20:44:13.923Z,9.36
2022-09-23T20:47:19.197Z,9.26
2022-09-23T20:50:21.673Z,9.16
2022-09-23T20:53:24.469Z,9.15
2022-09-23T20:56:27.476Z,9.16
2022-09-23T20:59:29.933Z,9.16
2022-09-23T21:02:33.766Z,9.16
2022-09-23T21:05:36.399Z,9.15
2022-09-23T21:08:39.319Z,9.08
2022-09-23T21:11:41.842Z,9.00
2022-09-23T21:14:44.322Z,8.90
2022-09-23T21:17:48.131Z,8.85
2022-09-23T21:20:57.171Z,8.85
2022-09-23T21:24:17.258Z,8.87
2022-09-23T21:27:22.841Z,8.91
2022-09-23T21:30:25.591Z,8.95
2022-09-23T21:33:30.943Z,8.93
2022-09-23T21:36:37.072Z,8.89
2022-09-23T21:39:39.579Z,8.82
2022-09-23T21:42:42.049Z,8.79
2022-09-23T21:45:44.564Z,8.75
2022-09-23T21:48:53.123Z,8.78
2022-09-23T21:52:00.743Z,8.77
2022-09-23T21:55:03.241Z,8.76
2022-09-23T21:58:05.730Z,8.71
2022-09-23T22:01:09.644Z,8.64
2022-09-23T22:04:17.244Z,8.59
2022-09-23T22:07:20.074Z,8.52
2022-09-23T22:10:22.561Z,8.47
2022-09-23T22:13:25.039Z,8.46
2022-09-23T22:16:28.269Z,8.47
2022-09-23T22:19:35.488Z,8.44
2022-09-23T22:22:38.291Z,8.49
2022-09-23T22:25:40.813Z,8.52
2022-09-23T22:29:00.775Z,8.55
2022-09-23T22:32:22.623Z,8.53
2022-09-23T22:35:26.398Z,8.48
2022-09-23T22:38:29.704Z,8.44
2022-09-23T22:41:32.465Z,8.46
2022-09-23T22:44:34.970Z,8.43
2022-09-23T22:47:39.663Z,8.44
2022-09-23T22:50:43.564Z,8.47
2022-09-23T22:53:46.041Z,8.45
2022-09-23T22:56:48.760Z,8.50
2022-09-23T22:59:51.242Z,8.51
2022-09-23T23:02:54.582Z,8.53
2022-09-23T23:06:02.026Z,8.55
2022-09-23T23:09:07.418Z,8.57
2022-09-23T23:12:12.821Z,8.64
2022-09-23T23:15:16.220Z,8.64
2022-09-23T23:18:18.701Z,8.69
2022-09-23T23:21:23.087Z,8.70
2022-09-23T23:24:25.562Z,8.59
2022-09-23T23:27:28.045Z,8.57
2022-09-23T23:30:30.531Z,8.56
2022-09-23T23:33:33.093Z,8.58
2022-09-23T23:36:37.147Z,8.68
2022-09-23T23:39:39.627Z,8.68
2022-09-23T23:42:42.382Z,8.73
2022-09-23T23:45:44.835Z,8.81
2022-09-23T23:48:48.150Z,8.88
2022-09-23T23:51:53.003Z,8.94
2022-09-23T23:54:55.491Z,8.97
2022-09-23T23:58:00.413Z,8.97
